<?xml version="1.0"?>
<gpx xmlns="http://www.topografix.com/GPX/1/1" xmlns:xsi="http://www.w3.org/2001/XMLSchema-instance" xmlns:wptx1="http://www.garmin.com/xmlschemas/WaypointExtension/v1" xmlns:gpxtrx="http://www.garmin.com/xmlschemas/GpxExtensions/v3" xmlns:gpxtpx="http://www.garmin.com/xmlschemas/TrackPointExtension/v1" xmlns:gpxx="http://www.garmin.com/xmlschemas/GpxExtensions/v3" xmlns:trp="http://www.garmin.com/xmlschemas/TripExtensions/v1" xmlns:adv="http://www.garmin.com/xmlschemas/AdventuresExtensions/v1" xmlns:prs="http://www.garmin.com/xmlschemas/PressureExtension/v1" xmlns:tmd="http://www.garmin.com/xmlschemas/TripMetaDataExtensions/v1" xmlns:vptm="http://www.garmin.com/xmlschemas/ViaPointTransportationModeExtensions/v1" xmlns:ctx="http://www.garmin.com/xmlschemas/CreationTimeExtension/v1" xmlns:gpxacc="http://www.garmin.com/xmlschemas/AccelerationExtension/v1" xmlns:gpxpx="http://www.garmin.com/xmlschemas/PowerExtension/v1" xmlns:vidx1="http://www.garmin.com/xmlschemas/VideoExtension/v1" creator="Garmin Desktop App" version="1.1" xsi:schemaLocation="http://www.topografix.com/GPX/1/1 http://www.topografix.com/GPX/1/1/gpx.xsd http://www.garmin.com/xmlschemas/WaypointExtension/v1 http://www8.garmin.com/xmlschemas/WaypointExtensionv1.xsd http://www.garmin.com/xmlschemas/TrackPointExtension/v1 http://www.garmin.com/xmlschemas/TrackPointExtensionv1.xsd http://www.garmin.com/xmlschemas/GpxExtensions/v3 http://www8.garmin.com/xmlschemas/GpxExtensionsv3.xsd http://www.garmin.com/xmlschemas/ActivityExtension/v1 http://www8.garmin.com/xmlschemas/ActivityExtensionv1.xsd http://www.garmin.com/xmlschemas/AdventuresExtensions/v1 http://www8.garmin.com/xmlschemas/AdventuresExtensionv1.xsd http://www.garmin.com/xmlschemas/PressureExtension/v1 http://www.garmin.com/xmlschemas/PressureExtensionv1.xsd http://www.garmin.com/xmlschemas/TripExtensions/v1 http://www.garmin.com/xmlschemas/TripExtensionsv1.xsd http://www.garmin.com/xmlschemas/TripMetaDataExtensions/v1 http://www.garmin.com/xmlschemas/TripMetaDataExtensionsv1.xsd http://www.garmin.com/xmlschemas/ViaPointTransportationModeExtensions/v1 http://www.garmin.com/xmlschemas/ViaPointTransportationModeExtensionsv1.xsd http://www.garmin.com/xmlschemas/CreationTimeExtension/v1 http://www.garmin.com/xmlschemas/CreationTimeExtensionsv1.xsd http://www.garmin.com/xmlschemas/AccelerationExtension/v1 http://www.garmin.com/xmlschemas/AccelerationExtensionv1.xsd http://www.garmin.com/xmlschemas/PowerExtension/v1 http://www.garmin.com/xmlschemas/PowerExtensionv1.xsd http://www.garmin.com/xmlschemas/VideoExtension/v1 http://www.garmin.com/xmlschemas/VideoExtensionv1.xsd">

  <metadata>
    <link href="http://www.garmin.com">
      <text>Garmin International</text>
    </link>
    <time>2018-02-27T04:28:05Z</time>
    <bounds maxlat="13.256055302917957" maxlon="99.724914897233248" minlat="13.180654216557741" minlon="99.672339744865894"/>
  </metadata>

  <wpt lat="13.184883305802941" lon="99.679650021716952">
    <time>2012-09-27T02:34:03Z</time>
    <name>Thanatthichaburi</name>
    <sym>Lodging</sym>
    <type>user</type>
    <extensions>
      <gpxx:WaypointExtension>
        <gpxx:DisplayMode>SymbolAndName</gpxx:DisplayMode>
      </gpxx:WaypointExtension>
      <wptx1:WaypointExtension>
        <wptx1:DisplayMode>SymbolAndName</wptx1:DisplayMode>
      </wptx1:WaypointExtension>
      <ctx:CreationTimeExtension>
        <ctx:CreationTime>2012-09-27T02:34:03Z</ctx:CreationTime>
      </ctx:CreationTimeExtension>
    </extensions>
  </wpt>

  <trk>
    <name>Saturday</name>
    <extensions>
      <gpxx:TrackExtension>
        <gpxx:DisplayColor>Red</gpxx:DisplayColor>
      </gpxx:TrackExtension>
    </extensions>
    <trkseg>
      <trkpt lat="13.184756236150861" lon="99.679595623165369">
        <ele>125.58935546875</ele>
        <time>2012-09-29T06:01:09Z</time>
      </trkpt>
      <trkpt lat="13.184893196448684" lon="99.679810283705592">
        <ele>121.2635498046875</ele>
        <time>2012-09-29T06:01:38Z</time>
      </trkpt>
      <trkpt lat="13.184904428198934" lon="99.679820090532303">
        <ele>109.2469482421875</ele>
        <time>2012-09-29T06:02:26Z</time>
      </trkpt>
      <trkpt lat="13.184842485934496" lon="99.679824952036142">
        <ele>107.3243408203125</ele>
        <time>2012-09-29T06:02:51Z</time>
      </trkpt>
      <trkpt lat="13.185003586113453" lon="99.679842554032803">
        <ele>106.8436279296875</ele>
        <time>2012-09-29T06:03:23Z</time>
      </trkpt>
      <trkpt lat="13.185027139261365" lon="99.680279670283198">
        <ele>106.363037109375</ele>
        <time>2012-09-29T06:03:36Z</time>
      </trkpt>
      <trkpt lat="13.184396736323833" lon="99.680626261979342">
        <ele>104.9210205078125</ele>
        <time>2012-09-29T06:03:53Z</time>
      </trkpt>
      <trkpt lat="13.184314342215657" lon="99.681688332930207">
        <ele>103.47900390625</ele>
        <time>2012-09-29T06:04:16Z</time>
      </trkpt>
      <trkpt lat="13.184801749885082" lon="99.683998385444283">
        <ele>107.8050537109375</ele>
        <time>2012-09-29T06:06:50Z</time>
      </trkpt>
      <trkpt lat="13.186221895739436" lon="99.683734942227602">
        <ele>108.28564453125</ele>
        <time>2012-09-29T06:07:52Z</time>
      </trkpt>
      <trkpt lat="13.186505874618888" lon="99.683136222884059">
        <ele>108.7662353515625</ele>
        <time>2012-09-29T06:08:16Z</time>
      </trkpt>
      <trkpt lat="13.186813071370125" lon="99.682262325659394">
        <ele>101.07568359375</ele>
        <time>2012-09-29T06:08:47Z</time>
      </trkpt>
      <trkpt lat="13.187482533976436" lon="99.682381264865398">
        <ele>99.6337890625</ele>
        <time>2012-09-29T06:09:04Z</time>
      </trkpt>
      <trkpt lat="13.187987208366394" lon="99.682860877364874">
        <ele>99.153076171875</ele>
        <time>2012-09-29T06:09:19Z</time>
      </trkpt>
      <trkpt lat="13.188536977395415" lon="99.683047207072377">
        <ele>96.7498779296875</ele>
        <time>2012-09-29T06:09:32Z</time>
      </trkpt>
      <trkpt lat="13.188840486109257" lon="99.68356822617352">
        <ele>95.3077392578125</ele>
        <time>2012-09-29T06:09:49Z</time>
      </trkpt>
      <trkpt lat="13.190172705799341" lon="99.683330850675702">
        <ele>95.3077392578125</ele>
        <time>2012-09-29T06:10:21Z</time>
      </trkpt>
      <trkpt lat="13.190532876178622" lon="99.683915572240949">
        <ele>90.5013427734375</ele>
        <time>2012-09-29T06:10:42Z</time>
      </trkpt>
      <trkpt lat="13.19160332903266" lon="99.683878859505057">
        <ele>92.904541015625</ele>
        <time>2012-09-29T06:12:28Z</time>
      </trkpt>
      <trkpt lat="13.191527556627989" lon="99.683300089091063">
        <ele>94.8271484375</ele>
        <time>2012-09-29T06:13:05Z</time>
      </trkpt>
      <trkpt lat="13.19234655238688" lon="99.682646300643682">
        <ele>98.19189453125</ele>
        <time>2012-09-29T06:13:42Z</time>
      </trkpt>
      <trkpt lat="13.192776879295707" lon="99.681642567738891">
        <ele>101.07568359375</ele>
        <time>2012-09-29T06:14:17Z</time>
      </trkpt>
      <trkpt lat="13.195982621982694" lon="99.68345289118588">
        <ele>98.19189453125</ele>
        <time>2012-09-29T06:15:32Z</time>
      </trkpt>
      <trkpt lat="13.197019463405013" lon="99.683285336941481">
        <ele>99.6337890625</ele>
        <time>2012-09-29T06:16:09Z</time>
      </trkpt>
      <trkpt lat="13.197418693453074" lon="99.683540062978864">
        <ele>102.998291015625</ele>
        <time>2012-09-29T06:26:19Z</time>
      </trkpt>
      <trkpt lat="13.19738139398396" lon="99.681122973561287">
        <ele>96.269287109375</ele>
        <time>2012-09-29T06:27:29Z</time>
      </trkpt>
      <trkpt lat="13.198048174381256" lon="99.681006213650107">
        <ele>97.711181640625</ele>
        <time>2012-09-29T06:28:08Z</time>
      </trkpt>
      <trkpt lat="13.197918757796288" lon="99.680423922836781">
        <ele>94.3465576171875</ele>
        <time>2012-09-29T06:29:47Z</time>
      </trkpt>
      <trkpt lat="13.198146326467395" lon="99.680004324764013">
        <ele>93.3851318359375</ele>
        <time>2012-09-29T06:30:47Z</time>
      </trkpt>
      <trkpt lat="13.19964031688869" lon="99.680297607555985">
        <ele>99.6337890625</ele>
        <time>2012-09-29T06:32:03Z</time>
      </trkpt>
      <trkpt lat="13.19975464604795" lon="99.680679235607386">
        <ele>100.5950927734375</ele>
        <time>2012-09-29T06:32:31Z</time>
      </trkpt>
      <trkpt lat="13.200814034789801" lon="99.681271081790328">
        <ele>104.4404296875</ele>
        <time>2012-09-29T06:33:20Z</time>
      </trkpt>
      <trkpt lat="13.201291803270578" lon="99.681963259354234">
        <ele>108.7662353515625</ele>
        <time>2012-09-29T06:33:48Z</time>
      </trkpt>
      <trkpt lat="13.20146581158042" lon="99.682339606806636">
        <ele>110.208251953125</ele>
        <time>2012-09-29T06:34:03Z</time>
      </trkpt>
      <trkpt lat="13.201893456280231" lon="99.68150619417429">
        <ele>109.7276611328125</ele>
        <time>2012-09-29T06:34:31Z</time>
      </trkpt>
      <trkpt lat="13.202359993010759" lon="99.681376274675131">
        <ele>113.572998046875</ele>
        <time>2012-09-29T06:34:48Z</time>
      </trkpt>
      <trkpt lat="13.203270938247442" lon="99.681190699338913">
        <ele>116.9375</ele>
        <time>2012-09-29T06:35:43Z</time>
      </trkpt>
      <trkpt lat="13.204261092469096" lon="99.680764144286513">
        <ele>118.860107421875</ele>
        <time>2012-09-29T06:36:20Z</time>
      </trkpt>
      <trkpt lat="13.204325465485454" lon="99.680295595899224">
        <ele>113.572998046875</ele>
        <time>2012-09-29T06:36:32Z</time>
      </trkpt>
      <trkpt lat="13.205542853102088" lon="99.680041288957">
        <ele>112.611572265625</ele>
        <time>2012-09-29T06:36:57Z</time>
      </trkpt>
      <trkpt lat="13.205530866980553" lon="99.679038226604462">
        <ele>108.7662353515625</ele>
        <time>2012-09-29T06:37:34Z</time>
      </trkpt>
      <trkpt lat="13.206141488626599" lon="99.678766904398799">
        <ele>111.6502685546875</ele>
        <time>2012-09-29T06:38:02Z</time>
      </trkpt>
      <trkpt lat="13.206522027030587" lon="99.677917482331395">
        <ele>126.0699462890625</ele>
        <time>2012-09-29T06:39:06Z</time>
      </trkpt>
      <trkpt lat="13.206643480807543" lon="99.677743138745427">
        <ele>127.0313720703125</ele>
        <time>2012-09-29T06:39:21Z</time>
      </trkpt>
      <trkpt lat="13.206664016470313" lon="99.677719501778483">
        <ele>127.0313720703125</ele>
        <time>2012-09-29T06:39:23Z</time>
      </trkpt>
      <trkpt lat="13.206447511911392" lon="99.677404258400202">
        <ele>123.666748046875</ele>
        <time>2012-09-29T06:39:37Z</time>
      </trkpt>
      <trkpt lat="13.20601399987936" lon="99.677550941705704">
        <ele>118.860107421875</ele>
        <time>2012-09-29T06:39:44Z</time>
      </trkpt>
      <trkpt lat="13.20529667660594" lon="99.67857638373971">
        <ele>106.8436279296875</ele>
        <time>2012-09-29T06:40:12Z</time>
      </trkpt>
      <trkpt lat="13.204846819862723" lon="99.677681531757116">
        <ele>103.959716796875</ele>
        <time>2012-09-29T06:51:30Z</time>
      </trkpt>
      <trkpt lat="13.204103596508503" lon="99.677203428000212">
        <ele>105.4017333984375</ele>
        <time>2012-09-29T06:51:56Z</time>
      </trkpt>
      <trkpt lat="13.20112181827426" lon="99.676783075556159">
        <ele>112.1309814453125</ele>
        <time>2012-09-29T06:53:15Z</time>
      </trkpt>
      <trkpt lat="13.200218416750431" lon="99.67699421569705">
        <ele>118.37939453125</ele>
        <time>2012-09-29T06:53:45Z</time>
      </trkpt>
      <trkpt lat="13.199066072702408" lon="99.677550103515387">
        <ele>104.9210205078125</ele>
        <time>2012-09-29T06:54:08Z</time>
      </trkpt>
      <trkpt lat="13.197805350646377" lon="99.677069652825594">
        <ele>102.5177001953125</ele>
        <time>2012-09-29T06:54:36Z</time>
      </trkpt>
      <trkpt lat="13.197439815849066" lon="99.676830098032951">
        <ele>98.19189453125</ele>
        <time>2012-09-29T06:54:52Z</time>
      </trkpt>
      <trkpt lat="13.198037277907133" lon="99.676928501576185">
        <ele>107.3243408203125</ele>
        <time>2012-09-29T06:55:26Z</time>
      </trkpt>
      <trkpt lat="13.19862543605268" lon="99.676393400877714">
        <ele>111.6502685546875</ele>
        <time>2012-09-29T06:55:55Z</time>
      </trkpt>
      <trkpt lat="13.199201440438628" lon="99.675550097599626">
        <ele>98.6724853515625</ele>
        <time>2012-09-29T06:56:39Z</time>
      </trkpt>
      <trkpt lat="13.201327174901962" lon="99.675189508125186">
        <ele>102.5177001953125</ele>
        <time>2012-09-29T06:58:05Z</time>
      </trkpt>
      <trkpt lat="13.2023717276752" lon="99.674613671377301">
        <ele>101.07568359375</ele>
        <time>2012-09-29T06:58:34Z</time>
      </trkpt>
      <trkpt lat="13.206356735900044" lon="99.673465518280864">
        <ele>106.8436279296875</ele>
        <time>2012-09-29T07:00:52Z</time>
      </trkpt>
      <trkpt lat="13.209320241585374" lon="99.672339744865894">
        <ele>107.8050537109375</ele>
        <time>2012-09-29T07:02:24Z</time>
      </trkpt>
      <trkpt lat="13.2099181227386" lon="99.673377173021436">
        <ele>115.49560546875</ele>
        <time>2012-09-29T07:03:31Z</time>
      </trkpt>
      <trkpt lat="13.210037061944604" lon="99.674415271729231">
        <ele>117.8988037109375</ele>
        <time>2012-09-29T07:05:30Z</time>
      </trkpt>
      <trkpt lat="13.209734726697206" lon="99.674760438501835">
        <ele>120.7828369140625</ele>
        <time>2012-09-29T07:06:05Z</time>
      </trkpt>
      <trkpt lat="13.210124736651778" lon="99.674741998314857">
        <ele>125.58935546875</ele>
        <time>2012-09-29T07:06:34Z</time>
      </trkpt>
      <trkpt lat="13.210369320586324" lon="99.675741624087095">
        <ele>122.2247314453125</ele>
        <time>2012-09-29T07:07:16Z</time>
      </trkpt>
      <trkpt lat="13.210878185927868" lon="99.675644394010305">
        <ele>120.3021240234375</ele>
        <time>2012-09-29T07:07:35Z</time>
      </trkpt>
      <trkpt lat="13.209210857748985" lon="99.678964633494616">
        <ele>124.1473388671875</ele>
        <time>2012-09-29T07:09:11Z</time>
      </trkpt>
      <trkpt lat="13.209022851660848" lon="99.680550154298544">
        <ele>128.9541015625</ele>
        <time>2012-09-29T07:09:53Z</time>
      </trkpt>
      <trkpt lat="13.208622364327312" lon="99.681493872776628">
        <ele>129.4346923828125</ele>
        <time>2012-09-29T07:10:16Z</time>
      </trkpt>
      <trkpt lat="13.208672739565372" lon="99.683044524863362">
        <ele>121.2635498046875</ele>
        <time>2012-09-29T07:10:45Z</time>
      </trkpt>
      <trkpt lat="13.209145395085216" lon="99.683200847357512">
        <ele>122.2247314453125</ele>
        <time>2012-09-29T07:11:09Z</time>
      </trkpt>
      <trkpt lat="13.209339855238795" lon="99.683571243658662">
        <ele>121.2635498046875</ele>
        <time>2012-09-29T07:11:34Z</time>
      </trkpt>
      <trkpt lat="13.209146149456501" lon="99.683555485680699">
        <ele>120.7828369140625</ele>
        <time>2012-09-29T07:11:52Z</time>
      </trkpt>
      <trkpt lat="13.208646588027477" lon="99.683030694723129">
        <ele>123.1861572265625</ele>
        <time>2012-09-29T07:22:07Z</time>
      </trkpt>
      <trkpt lat="13.207728937268257" lon="99.683205373585224">
        <ele>120.7828369140625</ele>
        <time>2012-09-29T07:23:04Z</time>
      </trkpt>
      <trkpt lat="13.207367844879627" lon="99.683616422116756">
        <ele>117.418212890625</ele>
        <time>2012-09-29T07:23:16Z</time>
      </trkpt>
      <trkpt lat="13.20684171281755" lon="99.685297748073936">
        <ele>114.5341796875</ele>
        <time>2012-09-29T07:24:28Z</time>
      </trkpt>
      <trkpt lat="13.206800557672977" lon="99.685892444103956">
        <ele>112.1309814453125</ele>
        <time>2012-09-29T07:24:53Z</time>
      </trkpt>
      <trkpt lat="13.208346767351031" lon="99.687159033492208">
        <ele>115.49560546875</ele>
        <time>2012-09-29T07:25:43Z</time>
      </trkpt>
      <trkpt lat="13.209044560790062" lon="99.688218589872122">
        <ele>118.860107421875</ele>
        <time>2012-09-29T07:26:13Z</time>
      </trkpt>
      <trkpt lat="13.208954203873873" lon="99.689028030261397">
        <ele>120.7828369140625</ele>
        <time>2012-09-29T07:26:34Z</time>
      </trkpt>
      <trkpt lat="13.209430128335953" lon="99.689840571954846">
        <ele>123.1861572265625</ele>
        <time>2012-09-29T07:26:58Z</time>
      </trkpt>
      <trkpt lat="13.209718717262149" lon="99.690252458676696">
        <ele>122.2247314453125</ele>
        <time>2012-09-29T07:27:13Z</time>
      </trkpt>
      <trkpt lat="13.209100132808089" lon="99.692904828116298">
        <ele>113.09228515625</ele>
        <time>2012-09-29T07:27:58Z</time>
      </trkpt>
      <trkpt lat="13.207586025819182" lon="99.693341189995408">
        <ele>110.6888427734375</ele>
        <time>2012-09-29T07:28:27Z</time>
      </trkpt>
      <trkpt lat="13.207164080813527" lon="99.694075360894203">
        <ele>107.3243408203125</ele>
        <time>2012-09-29T07:28:40Z</time>
      </trkpt>
      <trkpt lat="13.206552285701036" lon="99.694478781893849">
        <ele>107.3243408203125</ele>
        <time>2012-09-29T07:28:54Z</time>
      </trkpt>
      <trkpt lat="13.205540589988232" lon="99.695691727101803">
        <ele>102.5177001953125</ele>
        <time>2012-09-29T07:29:46Z</time>
      </trkpt>
      <trkpt lat="13.208467466756701" lon="99.697589557617903">
        <ele>102.037109375</ele>
        <time>2012-09-29T07:31:01Z</time>
      </trkpt>
      <trkpt lat="13.209204487502575" lon="99.697417393326759">
        <ele>103.47900390625</ele>
        <time>2012-09-29T07:31:17Z</time>
      </trkpt>
      <trkpt lat="13.209888031706214" lon="99.697230560705066">
        <ele>102.5177001953125</ele>
        <time>2012-09-29T07:31:33Z</time>
      </trkpt>
      <trkpt lat="13.210687329992652" lon="99.694780698046088">
        <ele>105.8824462890625</ele>
        <time>2012-09-29T07:33:08Z</time>
      </trkpt>
      <trkpt lat="13.21181888692081" lon="99.694258337840438">
        <ele>111.6502685546875</ele>
        <time>2012-09-29T07:33:45Z</time>
      </trkpt>
      <trkpt lat="13.211851827800274" lon="99.693735558539629">
        <ele>112.611572265625</ele>
        <time>2012-09-29T07:33:59Z</time>
      </trkpt>
      <trkpt lat="13.214336642995477" lon="99.692875742912292">
        <ele>114.0535888671875</ele>
        <time>2012-09-29T07:35:02Z</time>
      </trkpt>
      <trkpt lat="13.214223152026534" lon="99.690963495522738">
        <ele>119.3408203125</ele>
        <time>2012-09-29T07:35:51Z</time>
      </trkpt>
      <trkpt lat="13.214438399299979" lon="99.690214237198234">
        <ele>121.744140625</ele>
        <time>2012-09-29T07:36:11Z</time>
      </trkpt>
      <trkpt lat="13.215171564370394" lon="99.690585052594543">
        <ele>114.5341796875</ele>
        <time>2012-09-29T07:36:36Z</time>
      </trkpt>
      <trkpt lat="13.216371098533273" lon="99.692155485972762">
        <ele>114.5341796875</ele>
        <time>2012-09-29T07:38:44Z</time>
      </trkpt>
      <trkpt lat="13.215848319232464" lon="99.692417336627841">
        <ele>114.0535888671875</ele>
        <time>2012-09-29T07:39:08Z</time>
      </trkpt>
      <trkpt lat="13.215954853221774" lon="99.692876497283578">
        <ele>112.1309814453125</ele>
        <time>2012-09-29T07:39:25Z</time>
      </trkpt>
      <trkpt lat="13.214746434241533" lon="99.693617038428783">
        <ele>113.09228515625</ele>
        <time>2012-09-29T07:40:16Z</time>
      </trkpt>
      <trkpt lat="13.214136734604836" lon="99.694085502997041">
        <ele>111.6502685546875</ele>
        <time>2012-09-29T07:40:39Z</time>
      </trkpt>
      <trkpt lat="13.214511824771762" lon="99.695035424083471">
        <ele>107.8050537109375</ele>
        <time>2012-09-29T07:41:10Z</time>
      </trkpt>
      <trkpt lat="13.213614374399185" lon="99.695614529773593">
        <ele>106.363037109375</ele>
        <time>2012-09-29T07:41:39Z</time>
      </trkpt>
      <trkpt lat="13.213951913639903" lon="99.69626035541296">
        <ele>108.7662353515625</ele>
        <time>2012-09-29T07:42:08Z</time>
      </trkpt>
      <trkpt lat="13.213785197585821" lon="99.69687600620091">
        <ele>109.2469482421875</ele>
        <time>2012-09-29T07:42:24Z</time>
      </trkpt>
      <trkpt lat="13.213853091001511" lon="99.697220418602228">
        <ele>108.7662353515625</ele>
        <time>2012-09-29T07:42:31Z</time>
      </trkpt>
      <trkpt lat="13.213805481791496" lon="99.697524178773165">
        <ele>106.8436279296875</ele>
        <time>2012-09-29T07:42:37Z</time>
      </trkpt>
      <trkpt lat="13.215280529111624" lon="99.697157889604568">
        <ele>114.0535888671875</ele>
        <time>2012-09-29T07:43:24Z</time>
      </trkpt>
      <trkpt lat="13.216218547895551" lon="99.697198709473014">
        <ele>114.5341796875</ele>
        <time>2012-09-29T07:43:46Z</time>
      </trkpt>
      <trkpt lat="13.21511272341013" lon="99.697069628164172">
        <ele>114.0535888671875</ele>
        <time>2012-09-29T07:44:34Z</time>
      </trkpt>
      <trkpt lat="13.215715382248163" lon="99.695370364934206">
        <ele>108.28564453125</ele>
        <time>2012-09-29T07:45:22Z</time>
      </trkpt>
      <trkpt lat="13.216833360493183" lon="99.694848088547587">
        <ele>113.09228515625</ele>
        <time>2012-09-29T07:46:24Z</time>
      </trkpt>
      <trkpt lat="13.217275589704514" lon="99.694302091374993">
        <ele>117.418212890625</ele>
        <time>2012-09-29T07:46:52Z</time>
      </trkpt>
      <trkpt lat="13.217454543337226" lon="99.694481631740928">
        <ele>119.8214111328125</ele>
        <time>2012-09-29T07:47:11Z</time>
      </trkpt>
      <trkpt lat="13.216922041028738" lon="99.69531781040132">
        <ele>117.418212890625</ele>
        <time>2012-09-29T07:47:40Z</time>
      </trkpt>
      <trkpt lat="13.21718841791153" lon="99.695788957178593">
        <ele>121.744140625</ele>
        <time>2012-09-29T07:48:47Z</time>
      </trkpt>
      <trkpt lat="13.21752754971385" lon="99.696178799495101">
        <ele>118.37939453125</ele>
        <time>2012-09-29T07:49:05Z</time>
      </trkpt>
      <trkpt lat="13.217897526919842" lon="99.696207046508789">
        <ele>119.3408203125</ele>
        <time>2012-09-29T07:49:17Z</time>
      </trkpt>
      <trkpt lat="13.218070277944207" lon="99.696555649861693">
        <ele>118.37939453125</ele>
        <time>2012-09-29T07:49:26Z</time>
      </trkpt>
      <trkpt lat="13.219695277512074" lon="99.696330763399601">
        <ele>123.1861572265625</ele>
        <time>2012-09-29T07:50:11Z</time>
      </trkpt>
      <trkpt lat="13.220138847827911" lon="99.696406032890081">
        <ele>123.1861572265625</ele>
        <time>2012-09-29T07:50:21Z</time>
      </trkpt>
      <trkpt lat="13.221511635929346" lon="99.69696250744164">
        <ele>114.0535888671875</ele>
        <time>2012-09-29T07:50:44Z</time>
      </trkpt>
      <trkpt lat="13.223134372383356" lon="99.697200888767838">
        <ele>113.09228515625</ele>
        <time>2012-09-29T07:51:09Z</time>
      </trkpt>
      <trkpt lat="13.223698558285832" lon="99.696355909109116">
        <ele>115.9761962890625</ele>
        <time>2012-09-29T07:51:29Z</time>
      </trkpt>
      <trkpt lat="13.223951021209359" lon="99.696360351517797">
        <ele>116.456787109375</ele>
        <time>2012-09-29T07:51:36Z</time>
      </trkpt>
      <trkpt lat="13.22976915165782" lon="99.69426479190588">
        <ele>121.2635498046875</ele>
        <time>2012-09-29T07:53:30Z</time>
      </trkpt>
      <trkpt lat="13.230851171538234" lon="99.694021632894874">
        <ele>121.2635498046875</ele>
        <time>2012-09-29T07:53:49Z</time>
      </trkpt>
      <trkpt lat="13.231375627219677" lon="99.693928342312574">
        <ele>119.8214111328125</ele>
        <time>2012-09-29T07:53:57Z</time>
      </trkpt>
      <trkpt lat="13.232219098135829" lon="99.697453267872334">
        <ele>110.208251953125</ele>
        <time>2012-09-29T07:55:17Z</time>
      </trkpt>
      <trkpt lat="13.23183948174119" lon="99.697757866233587">
        <ele>109.7276611328125</ele>
        <time>2012-09-29T07:55:35Z</time>
      </trkpt>
      <trkpt lat="13.231991194188595" lon="99.698205711320043">
        <ele>113.09228515625</ele>
        <time>2012-09-29T07:56:17Z</time>
      </trkpt>
      <trkpt lat="13.232119688764215" lon="99.6988295763731">
        <ele>115.014892578125</ele>
        <time>2012-09-29T07:57:26Z</time>
      </trkpt>
      <trkpt lat="13.232356896623969" lon="99.699563579633832">
        <ele>115.9761962890625</ele>
        <time>2012-09-29T07:57:59Z</time>
      </trkpt>
      <trkpt lat="13.232364691793919" lon="99.699663743376732">
        <ele>115.49560546875</ele>
        <time>2012-09-29T07:58:03Z</time>
      </trkpt>
      <trkpt lat="13.229723470285535" lon="99.701340794563293">
        <ele>115.49560546875</ele>
        <time>2012-09-29T07:59:10Z</time>
      </trkpt>
      <trkpt lat="13.230325458571315" lon="99.701294610276818">
        <ele>112.1309814453125</ele>
        <time>2012-09-29T08:05:44Z</time>
      </trkpt>
      <trkpt lat="13.230614466592669" lon="99.701924007385969">
        <ele>115.014892578125</ele>
        <time>2012-09-29T08:06:45Z</time>
      </trkpt>
      <trkpt lat="13.231739485636353" lon="99.702884322032332">
        <ele>116.9375</ele>
        <time>2012-09-29T08:07:40Z</time>
      </trkpt>
      <trkpt lat="13.232388747856021" lon="99.705458991229534">
        <ele>122.7054443359375</ele>
        <time>2012-09-29T08:08:53Z</time>
      </trkpt>
      <trkpt lat="13.231122242286801" lon="99.70571824349463">
        <ele>120.7828369140625</ele>
        <time>2012-09-29T08:09:35Z</time>
      </trkpt>
      <trkpt lat="13.231367077678442" lon="99.706320902332664">
        <ele>123.666748046875</ele>
        <time>2012-09-29T08:10:03Z</time>
      </trkpt>
      <trkpt lat="13.231108663603663" lon="99.705669712275267">
        <ele>120.3021240234375</ele>
        <time>2012-09-29T08:11:06Z</time>
      </trkpt>
      <trkpt lat="13.23242680169642" lon="99.705582121387124">
        <ele>123.1861572265625</ele>
        <time>2012-09-29T08:11:57Z</time>
      </trkpt>
      <trkpt lat="13.23305276222527" lon="99.705514227971435">
        <ele>120.7828369140625</ele>
        <time>2012-09-29T08:12:25Z</time>
      </trkpt>
      <trkpt lat="13.232926866039634" lon="99.704438243061304">
        <ele>117.8988037109375</ele>
        <time>2012-09-29T08:13:02Z</time>
      </trkpt>
      <trkpt lat="13.233490800485015" lon="99.704557433724403">
        <ele>116.9375</ele>
        <time>2012-09-29T08:13:49Z</time>
      </trkpt>
      <trkpt lat="13.232907671481371" lon="99.704449810087681">
        <ele>118.860107421875</ele>
        <time>2012-09-29T08:14:19Z</time>
      </trkpt>
      <trkpt lat="13.233067765831947" lon="99.705469971522689">
        <ele>120.3021240234375</ele>
        <time>2012-09-29T08:15:23Z</time>
      </trkpt>
      <trkpt lat="13.232726873829961" lon="99.705537613481283">
        <ele>122.7054443359375</ele>
        <time>2012-09-29T08:15:41Z</time>
      </trkpt>
      <trkpt lat="13.233062569051981" lon="99.705444406718016">
        <ele>121.2635498046875</ele>
        <time>2012-09-29T08:16:47Z</time>
      </trkpt>
      <trkpt lat="13.232914209365845" lon="99.704405134543777">
        <ele>117.8988037109375</ele>
        <time>2012-09-29T08:17:29Z</time>
      </trkpt>
      <trkpt lat="13.233733708038926" lon="99.704538490623236">
        <ele>115.014892578125</ele>
        <time>2012-09-29T08:18:01Z</time>
      </trkpt>
      <trkpt lat="13.2346779294312" lon="99.704075641930103">
        <ele>118.37939453125</ele>
        <time>2012-09-29T08:18:49Z</time>
      </trkpt>
      <trkpt lat="13.235367173328996" lon="99.704212099313736">
        <ele>120.3021240234375</ele>
        <time>2012-09-29T08:19:18Z</time>
      </trkpt>
      <trkpt lat="13.235818203538656" lon="99.704330787062645">
        <ele>119.3408203125</ele>
        <time>2012-09-29T08:19:30Z</time>
      </trkpt>
      <trkpt lat="13.23649219237268" lon="99.702817099168897">
        <ele>116.9375</ele>
        <time>2012-09-29T08:21:13Z</time>
      </trkpt>
      <trkpt lat="13.238765699788928" lon="99.702056692913175">
        <ele>123.666748046875</ele>
        <time>2012-09-29T08:22:22Z</time>
      </trkpt>
      <trkpt lat="13.239327371120453" lon="99.701007446274161">
        <ele>134.2412109375</ele>
        <time>2012-09-29T08:23:22Z</time>
      </trkpt>
      <trkpt lat="13.239617049694061" lon="99.699954595416784">
        <ele>136.1639404296875</ele>
        <time>2012-09-29T08:23:59Z</time>
      </trkpt>
      <trkpt lat="13.240517014637589" lon="99.700219966471195">
        <ele>137.125244140625</ele>
        <time>2012-09-29T08:42:15Z</time>
      </trkpt>
      <trkpt lat="13.239644961431623" lon="99.699845798313618">
        <ele>137.125244140625</ele>
        <time>2012-09-29T08:43:46Z</time>
      </trkpt>
      <trkpt lat="13.239757781848311" lon="99.699276247993112">
        <ele>139.5284423828125</ele>
        <time>2012-09-29T08:44:05Z</time>
      </trkpt>
      <trkpt lat="13.238643240183592" lon="99.698972487822175">
        <ele>140.0091552734375</ele>
        <time>2012-09-29T08:44:35Z</time>
      </trkpt>
      <trkpt lat="13.238141583278775" lon="99.698850614950061">
        <ele>137.6058349609375</ele>
        <time>2012-09-29T08:44:44Z</time>
      </trkpt>
      <trkpt lat="13.237846624106169" lon="99.698377288877964">
        <ele>133.760498046875</ele>
        <time>2012-09-29T08:44:56Z</time>
      </trkpt>
      <trkpt lat="13.236279962584376" lon="99.697863897308707">
        <ele>121.2635498046875</ele>
        <time>2012-09-29T08:45:15Z</time>
      </trkpt>
      <trkpt lat="13.23607929982245" lon="99.696143763139844">
        <ele>121.2635498046875</ele>
        <time>2012-09-29T08:45:51Z</time>
      </trkpt>
      <trkpt lat="13.23416244238615" lon="99.692323124036193">
        <ele>122.2247314453125</ele>
        <time>2012-09-29T08:47:08Z</time>
      </trkpt>
      <trkpt lat="13.235130552202463" lon="99.691089307889342">
        <ele>121.744140625</ele>
        <time>2012-09-29T08:47:38Z</time>
      </trkpt>
      <trkpt lat="13.235882325097919" lon="99.690807508304715">
        <ele>123.1861572265625</ele>
        <time>2012-09-29T08:47:59Z</time>
      </trkpt>
      <trkpt lat="13.236594703048468" lon="99.69051799736917">
        <ele>120.3021240234375</ele>
        <time>2012-09-29T08:48:12Z</time>
      </trkpt>
      <trkpt lat="13.236652789637446" lon="99.689082344993949">
        <ele>129.4346923828125</ele>
        <time>2012-09-29T08:49:02Z</time>
      </trkpt>
      <trkpt lat="13.238233868032694" lon="99.689286276698112">
        <ele>135.2025146484375</ele>
        <time>2012-09-29T08:50:06Z</time>
      </trkpt>
      <trkpt lat="13.239126708358526" lon="99.689394906163216">
        <ele>133.2799072265625</ele>
        <time>2012-09-29T08:50:24Z</time>
      </trkpt>
      <trkpt lat="13.240338815376163" lon="99.689119560644031">
        <ele>145.777099609375</ele>
        <time>2012-09-29T08:51:23Z</time>
      </trkpt>
      <trkpt lat="13.24078825302422" lon="99.688978241756558">
        <ele>147.218994140625</ele>
        <time>2012-09-29T08:51:44Z</time>
      </trkpt>
      <trkpt lat="13.241682685911655" lon="99.688446242362261">
        <ele>139.5284423828125</ele>
        <time>2012-09-29T08:52:08Z</time>
      </trkpt>
      <trkpt lat="13.242289451882243" lon="99.689237829297781">
        <ele>130.876708984375</ele>
        <time>2012-09-29T08:52:28Z</time>
      </trkpt>
      <trkpt lat="13.246583333238959" lon="99.690770711749792">
        <ele>129.915283203125</ele>
        <time>2012-09-29T08:54:04Z</time>
      </trkpt>
      <trkpt lat="13.247826118022203" lon="99.690626710653305">
        <ele>128.473388671875</ele>
        <time>2012-09-29T08:54:49Z</time>
      </trkpt>
      <trkpt lat="13.248864552006125" lon="99.690379193052649">
        <ele>125.58935546875</ele>
        <time>2012-09-29T08:55:10Z</time>
      </trkpt>
      <trkpt lat="13.249963251873851" lon="99.690468208864331">
        <ele>127.9925537109375</ele>
        <time>2012-09-29T08:55:47Z</time>
      </trkpt>
      <trkpt lat="13.250978970900178" lon="99.68944888561964">
        <ele>138.0865478515625</ele>
        <time>2012-09-29T08:57:02Z</time>
      </trkpt>
      <trkpt lat="13.25230180285871" lon="99.688711110502481">
        <ele>138.5672607421875</ele>
        <time>2012-09-29T08:57:47Z</time>
      </trkpt>
      <trkpt lat="13.25347593985498" lon="99.689917350187898">
        <ele>143.3736572265625</ele>
        <time>2012-09-29T08:58:46Z</time>
      </trkpt>
      <trkpt lat="13.254601461812854" lon="99.69016863964498">
        <ele>148.180419921875</ele>
        <time>2012-09-29T08:59:34Z</time>
      </trkpt>
      <trkpt lat="13.255066322162747" lon="99.69033476896584">
        <ele>148.6610107421875</ele>
        <time>2012-09-29T08:59:50Z</time>
      </trkpt>
      <trkpt lat="13.255109991878271" lon="99.690865678712726">
        <ele>146.2578125</ele>
        <time>2012-09-29T09:00:06Z</time>
      </trkpt>
      <trkpt lat="13.254413204267621" lon="99.691967312246561">
        <ele>145.29638671875</ele>
        <time>2012-09-29T09:00:35Z</time>
      </trkpt>
      <trkpt lat="13.254058649763465" lon="99.692499060183764">
        <ele>138.0865478515625</ele>
        <time>2012-09-29T09:00:45Z</time>
      </trkpt>
      <trkpt lat="13.254069881513715" lon="99.693775372579694">
        <ele>130.876708984375</ele>
        <time>2012-09-29T09:01:01Z</time>
      </trkpt>
      <trkpt lat="13.253749525174499" lon="99.694466041401029">
        <ele>128.9541015625</ele>
        <time>2012-09-29T09:01:11Z</time>
      </trkpt>
      <trkpt lat="13.253934681415558" lon="99.694928387179971">
        <ele>128.473388671875</ele>
        <time>2012-09-29T09:01:18Z</time>
      </trkpt>
      <trkpt lat="13.25489834882319" lon="99.695726511999965">
        <ele>127.511962890625</ele>
        <time>2012-09-29T09:01:35Z</time>
      </trkpt>
      <trkpt lat="13.255012594163418" lon="99.695847379043698">
        <ele>125.1087646484375</ele>
        <time>2012-09-29T09:01:38Z</time>
      </trkpt>
      <trkpt lat="13.255586167797446" lon="99.696915149688721">
        <ele>144.335205078125</ele>
        <time>2012-09-29T09:02:22Z</time>
      </trkpt>
      <trkpt lat="13.256055302917957" lon="99.697755267843604">
        <ele>151.544921875</ele>
        <time>2012-09-29T09:02:48Z</time>
      </trkpt>
      <trkpt lat="13.255303781479597" lon="99.69833948649466">
        <ele>155.8709716796875</ele>
        <time>2012-09-29T09:03:05Z</time>
      </trkpt>
      <trkpt lat="13.255260782316327" lon="99.698664285242558">
        <ele>158.274169921875</ele>
        <time>2012-09-29T09:03:10Z</time>
      </trkpt>
      <trkpt lat="13.255195068195462" lon="99.699165606871247">
        <ele>127.0313720703125</ele>
        <time>2012-09-29T09:03:18Z</time>
      </trkpt>
      <trkpt lat="13.254665415734053" lon="99.699735743924975">
        <ele>131.3572998046875</ele>
        <time>2012-09-29T09:03:43Z</time>
      </trkpt>
      <trkpt lat="13.253731923177838" lon="99.70035701058805">
        <ele>139.5284423828125</ele>
        <time>2012-09-29T09:04:34Z</time>
      </trkpt>
      <trkpt lat="13.25230180285871" lon="99.701321767643094">
        <ele>138.0865478515625</ele>
        <time>2012-09-29T09:05:12Z</time>
      </trkpt>
      <trkpt lat="13.252742607146502" lon="99.701952086761594">
        <ele>141.9317626953125</ele>
        <time>2012-09-29T09:05:35Z</time>
      </trkpt>
      <trkpt lat="13.252572454512119" lon="99.702436812222004">
        <ele>143.3736572265625</ele>
        <time>2012-09-29T09:05:48Z</time>
      </trkpt>
      <trkpt lat="13.252221252769232" lon="99.703461080789566">
        <ele>144.335205078125</ele>
        <time>2012-09-29T09:06:15Z</time>
      </trkpt>
      <trkpt lat="13.249335866421461" lon="99.703334430232644">
        <ele>141.9317626953125</ele>
        <time>2012-09-29T09:07:20Z</time>
      </trkpt>
      <trkpt lat="13.248827252537012" lon="99.702396830543876">
        <ele>142.4124755859375</ele>
        <time>2012-09-29T09:07:40Z</time>
      </trkpt>
      <trkpt lat="13.248925488442183" lon="99.70124339684844">
        <ele>143.3736572265625</ele>
        <time>2012-09-29T09:08:03Z</time>
      </trkpt>
      <trkpt lat="13.248311597853899" lon="99.701058659702539">
        <ele>143.3736572265625</ele>
        <time>2012-09-29T09:08:21Z</time>
      </trkpt>
      <trkpt lat="13.246478056535125" lon="99.700822457671165">
        <ele>140.970458984375</ele>
        <time>2012-09-29T09:08:56Z</time>
      </trkpt>
      <trkpt lat="13.244875771924853" lon="99.701275080442429">
        <ele>136.1639404296875</ele>
        <time>2012-09-29T09:09:23Z</time>
      </trkpt>
      <trkpt lat="13.245146758854389" lon="99.702197760343552">
        <ele>136.1639404296875</ele>
        <time>2012-09-29T09:09:47Z</time>
      </trkpt>
      <trkpt lat="13.244918016716838" lon="99.703360665589571">
        <ele>138.0865478515625</ele>
        <time>2012-09-29T09:10:23Z</time>
      </trkpt>
      <trkpt lat="13.24354263022542" lon="99.703979752957821">
        <ele>129.915283203125</ele>
        <time>2012-09-29T09:11:32Z</time>
      </trkpt>
      <trkpt lat="13.244630433619022" lon="99.705671137198806">
        <ele>126.0699462890625</ele>
        <time>2012-09-29T09:12:31Z</time>
      </trkpt>
      <trkpt lat="13.245016001164913" lon="99.707932155579329">
        <ele>124.1473388671875</ele>
        <time>2012-09-29T09:13:36Z</time>
      </trkpt>
      <trkpt lat="13.245942704379559" lon="99.709598645567894">
        <ele>133.2799072265625</ele>
        <time>2012-09-29T09:14:27Z</time>
      </trkpt>
      <trkpt lat="13.245330238714814" lon="99.711371753364801">
        <ele>145.777099609375</ele>
        <time>2012-09-29T09:19:36Z</time>
      </trkpt>
      <trkpt lat="13.245330154895782" lon="99.712554691359401">
        <ele>153.9483642578125</ele>
        <time>2012-09-29T09:20:35Z</time>
      </trkpt>
      <trkpt lat="13.244324577972293" lon="99.712310694158077">
        <ele>150.10302734375</ele>
        <time>2012-09-29T09:21:04Z</time>
      </trkpt>
      <trkpt lat="13.243614882230759" lon="99.71276817843318">
        <ele>145.777099609375</ele>
        <time>2012-09-29T09:21:32Z</time>
      </trkpt>
      <trkpt lat="13.24071642011404" lon="99.713044529780746">
        <ele>138.0865478515625</ele>
        <time>2012-09-29T09:23:24Z</time>
      </trkpt>
      <trkpt lat="13.24069295078516" lon="99.714130153879523">
        <ele>140.4898681640625</ele>
        <time>2012-09-29T09:24:23Z</time>
      </trkpt>
      <trkpt lat="13.241320084780455" lon="99.714909419417381">
        <ele>145.29638671875</ele>
        <time>2012-09-29T09:25:12Z</time>
      </trkpt>
      <trkpt lat="13.241686373949051" lon="99.715927988290787">
        <ele>149.622314453125</ele>
        <time>2012-09-29T09:26:06Z</time>
      </trkpt>
      <trkpt lat="13.241826435551047" lon="99.716261671856046">
        <ele>150.5836181640625</ele>
        <time>2012-09-29T09:26:23Z</time>
      </trkpt>
      <trkpt lat="13.241626946255565" lon="99.717352828010917">
        <ele>161.158203125</ele>
        <time>2012-09-29T09:27:45Z</time>
      </trkpt>
      <trkpt lat="13.242081329226494" lon="99.718581447377801">
        <ele>160.677490234375</ele>
        <time>2012-09-29T09:28:38Z</time>
      </trkpt>
      <trkpt lat="13.241988625377417" lon="99.719100203365088">
        <ele>162.1195068359375</ele>
        <time>2012-09-29T09:29:01Z</time>
      </trkpt>
      <trkpt lat="13.241475149989128" lon="99.719841834157705">
        <ele>155.3902587890625</ele>
        <time>2012-09-29T09:29:24Z</time>
      </trkpt>
      <trkpt lat="13.238691184669733" lon="99.72163095138967">
        <ele>140.970458984375</ele>
        <time>2012-09-29T09:31:07Z</time>
      </trkpt>
      <trkpt lat="13.238463113084435" lon="99.722017608582973">
        <ele>139.0478515625</ele>
        <time>2012-09-29T09:31:17Z</time>
      </trkpt>
      <trkpt lat="13.238150468096137" lon="99.722205866128206">
        <ele>136.6446533203125</ele>
        <time>2012-09-29T09:31:24Z</time>
      </trkpt>
      <trkpt lat="13.238151222467422" lon="99.72270199097693">
        <ele>137.6058349609375</ele>
        <time>2012-09-29T09:31:41Z</time>
      </trkpt>
      <trkpt lat="13.23848582804203" lon="99.722904078662395">
        <ele>139.0478515625</ele>
        <time>2012-09-29T09:31:57Z</time>
      </trkpt>
      <trkpt lat="13.238288853317499" lon="99.723188979551196">
        <ele>138.5672607421875</ele>
        <time>2012-09-29T09:32:08Z</time>
      </trkpt>
      <trkpt lat="13.236179547384381" lon="99.723763726651669">
        <ele>127.511962890625</ele>
        <time>2012-09-29T09:32:45Z</time>
      </trkpt>
      <trkpt lat="13.235160978510976" lon="99.724883129820228">
        <ele>126.0699462890625</ele>
        <time>2012-09-29T09:33:19Z</time>
      </trkpt>
      <trkpt lat="13.234102427959442" lon="99.724914897233248">
        <ele>130.876708984375</ele>
        <time>2012-09-29T09:33:44Z</time>
      </trkpt>
      <trkpt lat="13.234182558953762" lon="99.724478032439947">
        <ele>133.760498046875</ele>
        <time>2012-09-29T09:34:02Z</time>
      </trkpt>
      <trkpt lat="13.23405934497714" lon="99.723329795524478">
        <ele>135.68310546875</ele>
        <time>2012-09-29T09:34:45Z</time>
      </trkpt>
      <trkpt lat="13.23307279497385" lon="99.722773572430015">
        <ele>135.2025146484375</ele>
        <time>2012-09-29T09:35:22Z</time>
      </trkpt>
      <trkpt lat="13.230296121910214" lon="99.724007723852992">
        <ele>135.68310546875</ele>
        <time>2012-09-29T09:36:05Z</time>
      </trkpt>
      <trkpt lat="13.229951541870832" lon="99.724033372476697">
        <ele>135.2025146484375</ele>
        <time>2012-09-29T09:36:11Z</time>
      </trkpt>
      <trkpt lat="13.229650799185038" lon="99.723431384190917">
        <ele>133.760498046875</ele>
        <time>2012-09-29T09:36:27Z</time>
      </trkpt>
      <trkpt lat="13.228628123179078" lon="99.723248071968555">
        <ele>131.3572998046875</ele>
        <time>2012-09-29T09:36:49Z</time>
      </trkpt>
      <trkpt lat="13.228015908971429" lon="99.723313534632325">
        <ele>129.4346923828125</ele>
        <time>2012-09-29T09:37:12Z</time>
      </trkpt>
      <trkpt lat="13.226810675114393" lon="99.723472623154521">
        <ele>121.2635498046875</ele>
        <time>2012-09-29T09:37:53Z</time>
      </trkpt>
      <trkpt lat="13.22848211042583" lon="99.723359048366547">
        <ele>115.49560546875</ele>
        <time>2012-09-29T09:44:17Z</time>
      </trkpt>
      <trkpt lat="13.229021318256855" lon="99.722208380699158">
        <ele>114.0535888671875</ele>
        <time>2012-09-29T09:44:51Z</time>
      </trkpt>
      <trkpt lat="13.227934017777443" lon="99.72189623862505">
        <ele>112.611572265625</ele>
        <time>2012-09-29T09:45:22Z</time>
      </trkpt>
      <trkpt lat="13.227007063105702" lon="99.719312936067581">
        <ele>115.9761962890625</ele>
        <time>2012-09-29T09:46:49Z</time>
      </trkpt>
      <trkpt lat="13.228324949741364" lon="99.718664679676294">
        <ele>122.7054443359375</ele>
        <time>2012-09-29T09:47:47Z</time>
      </trkpt>
      <trkpt lat="13.228426706045866" lon="99.718129243701696">
        <ele>123.666748046875</ele>
        <time>2012-09-29T09:48:06Z</time>
      </trkpt>
      <trkpt lat="13.228638768196106" lon="99.71736129373312">
        <ele>121.744140625</ele>
        <time>2012-09-29T09:48:36Z</time>
      </trkpt>
      <trkpt lat="13.228978822007775" lon="99.717259621247649">
        <ele>120.7828369140625</ele>
        <time>2012-09-29T09:48:51Z</time>
      </trkpt>
      <trkpt lat="13.228551344946027" lon="99.715894209221005">
        <ele>127.0313720703125</ele>
        <time>2012-09-29T09:50:04Z</time>
      </trkpt>
      <trkpt lat="13.228128561750054" lon="99.716058494523168">
        <ele>130.39599609375</ele>
        <time>2012-09-29T09:50:45Z</time>
      </trkpt>
      <trkpt lat="13.227060707286" lon="99.716240130364895">
        <ele>123.666748046875</ele>
        <time>2012-09-29T09:51:20Z</time>
      </trkpt>
      <trkpt lat="13.226520242169499" lon="99.715642500668764">
        <ele>135.2025146484375</ele>
        <time>2012-09-29T09:52:40Z</time>
      </trkpt>
      <trkpt lat="13.22599645704031" lon="99.714723927900195">
        <ele>129.4346923828125</ele>
        <time>2012-09-29T09:53:05Z</time>
      </trkpt>
      <trkpt lat="13.225758578628302" lon="99.714112970978022">
        <ele>118.860107421875</ele>
        <time>2012-09-29T09:53:16Z</time>
      </trkpt>
      <trkpt lat="13.225244265049696" lon="99.713644422590733">
        <ele>115.9761962890625</ele>
        <time>2012-09-29T09:53:33Z</time>
      </trkpt>
      <trkpt lat="13.223332352936268" lon="99.713420206680894">
        <ele>111.6502685546875</ele>
        <time>2012-09-29T09:54:07Z</time>
      </trkpt>
      <trkpt lat="13.222444709390402" lon="99.712654771283269">
        <ele>112.1309814453125</ele>
        <time>2012-09-29T09:54:30Z</time>
      </trkpt>
      <trkpt lat="13.221630994230509" lon="99.713055426254869">
        <ele>113.572998046875</ele>
        <time>2012-09-29T09:54:48Z</time>
      </trkpt>
      <trkpt lat="13.221391271799803" lon="99.71296951174736">
        <ele>110.6888427734375</ele>
        <time>2012-09-29T09:54:53Z</time>
      </trkpt>
      <trkpt lat="13.22033666074276" lon="99.711900148540735">
        <ele>105.8824462890625</ele>
        <time>2012-09-29T09:55:13Z</time>
      </trkpt>
      <trkpt lat="13.215466607362032" lon="99.708881238475442">
        <ele>105.8824462890625</ele>
        <time>2012-09-29T10:05:10Z</time>
      </trkpt>
      <trkpt lat="13.214337397366762" lon="99.708219151943922">
        <ele>104.9210205078125</ele>
        <time>2012-09-29T10:05:42Z</time>
      </trkpt>
      <trkpt lat="13.212803760543466" lon="99.711641231551766">
        <ele>106.363037109375</ele>
        <time>2012-09-29T10:07:12Z</time>
      </trkpt>
      <trkpt lat="13.20585566572845" lon="99.711654139682651">
        <ele>131.3572998046875</ele>
        <time>2012-09-29T10:11:27Z</time>
      </trkpt>
      <trkpt lat="13.205789951607585" lon="99.709397982805967">
        <ele>110.6888427734375</ele>
        <time>2012-09-29T10:12:44Z</time>
      </trkpt>
      <trkpt lat="13.202547412365675" lon="99.709581965580583">
        <ele>111.1695556640625</ele>
        <time>2012-09-29T10:14:36Z</time>
      </trkpt>
      <trkpt lat="13.202484883368015" lon="99.707646081224084">
        <ele>103.47900390625</ele>
        <time>2012-09-29T10:15:07Z</time>
      </trkpt>
      <trkpt lat="13.200915371999145" lon="99.707695785909891">
        <ele>98.6724853515625</ele>
        <time>2012-09-29T10:15:33Z</time>
      </trkpt>
      <trkpt lat="13.200860386714339" lon="99.708195934072137">
        <ele>100.114501953125</ele>
        <time>2012-09-29T10:15:51Z</time>
      </trkpt>
      <trkpt lat="13.200851082801819" lon="99.708192329853773">
        <ele>99.6337890625</ele>
        <time>2012-09-29T10:15:56Z</time>
      </trkpt>
      <trkpt lat="13.200956024229527" lon="99.707679357379675">
        <ele>99.153076171875</ele>
        <time>2012-09-29T10:16:18Z</time>
      </trkpt>
      <trkpt lat="13.202448422089219" lon="99.707644321024418">
        <ele>103.47900390625</ele>
        <time>2012-09-29T10:17:26Z</time>
      </trkpt>
      <trkpt lat="13.201658092439175" lon="99.707653122022748">
        <ele>100.114501953125</ele>
        <time>2012-09-29T10:17:57Z</time>
      </trkpt>
      <trkpt lat="13.201630348339677" lon="99.705603998154402">
        <ele>98.19189453125</ele>
        <time>2012-09-29T10:18:49Z</time>
      </trkpt>
      <trkpt lat="13.20066156797111" lon="99.705599807202816">
        <ele>97.711181640625</ele>
        <time>2012-09-29T10:19:22Z</time>
      </trkpt>
      <trkpt lat="13.200200479477644" lon="99.705601567402482">
        <ele>96.7498779296875</ele>
        <time>2012-09-29T10:19:32Z</time>
      </trkpt>
      <trkpt lat="13.198783518746495" lon="99.705898202955723">
        <ele>97.711181640625</ele>
        <time>2012-09-29T10:20:24Z</time>
      </trkpt>
      <trkpt lat="13.198601715266705" lon="99.706900510936975">
        <ele>96.7498779296875</ele>
        <time>2012-09-29T10:21:09Z</time>
      </trkpt>
      <trkpt lat="13.198916958644986" lon="99.707238553091884">
        <ele>98.6724853515625</ele>
        <time>2012-09-29T10:22:01Z</time>
      </trkpt>
      <trkpt lat="13.19879206828773" lon="99.707546168938279">
        <ele>101.556396484375</ele>
        <time>2012-09-29T10:22:23Z</time>
      </trkpt>
      <trkpt lat="13.19799511693418" lon="99.709062706679106">
        <ele>101.556396484375</ele>
        <time>2012-09-29T10:23:33Z</time>
      </trkpt>
      <trkpt lat="13.19497536867857" lon="99.709128253161907">
        <ele>109.7276611328125</ele>
        <time>2012-09-29T10:24:59Z</time>
      </trkpt>
      <trkpt lat="13.194861458614469" lon="99.708246225491166">
        <ele>108.28564453125</ele>
        <time>2012-09-29T10:25:20Z</time>
      </trkpt>
      <trkpt lat="13.194825667887926" lon="99.708664817735553">
        <ele>111.1695556640625</ele>
        <time>2012-09-29T10:25:53Z</time>
      </trkpt>
      <trkpt lat="13.194542611017823" lon="99.708638498559594">
        <ele>111.6502685546875</ele>
        <time>2012-09-29T10:26:14Z</time>
      </trkpt>
      <trkpt lat="13.191943634301424" lon="99.708842514082789">
        <ele>117.418212890625</ele>
        <time>2012-09-29T10:28:20Z</time>
      </trkpt>
      <trkpt lat="13.189671132713556" lon="99.709869967773557">
        <ele>127.511962890625</ele>
        <time>2012-09-29T10:30:34Z</time>
      </trkpt>
      <trkpt lat="13.189207948744297" lon="99.709864184260368">
        <ele>128.473388671875</ele>
        <time>2012-09-29T10:30:58Z</time>
      </trkpt>
      <trkpt lat="13.189173247665167" lon="99.709596298635006">
        <ele>128.9541015625</ele>
        <time>2012-09-29T10:31:11Z</time>
      </trkpt>
      <trkpt lat="13.189025390893221" lon="99.708806471899152">
        <ele>125.1087646484375</ele>
        <time>2012-09-29T10:31:36Z</time>
      </trkpt>
      <trkpt lat="13.189369635656476" lon="99.70842719078064">
        <ele>122.2247314453125</ele>
        <time>2012-09-29T10:31:53Z</time>
      </trkpt>
      <trkpt lat="13.189171152189374" lon="99.70560098066926">
        <ele>127.9925537109375</ele>
        <time>2012-09-29T10:33:43Z</time>
      </trkpt>
      <trkpt lat="13.189545655623078" lon="99.704938223585486">
        <ele>125.1087646484375</ele>
        <time>2012-09-29T10:34:08Z</time>
      </trkpt>
      <trkpt lat="13.188974680379033" lon="99.703489327803254">
        <ele>122.7054443359375</ele>
        <time>2012-09-29T10:34:43Z</time>
      </trkpt>
      <trkpt lat="13.189234770834446" lon="99.70245516858995">
        <ele>119.8214111328125</ele>
        <time>2012-09-29T10:35:07Z</time>
      </trkpt>
      <trkpt lat="13.189756125211716" lon="99.700856739655137">
        <ele>106.8436279296875</ele>
        <time>2012-09-29T10:35:46Z</time>
      </trkpt>
      <trkpt lat="13.190387785434723" lon="99.700815081596375">
        <ele>100.114501953125</ele>
        <time>2012-09-29T10:36:09Z</time>
      </trkpt>
      <trkpt lat="13.190406477078795" lon="99.700018214061856">
        <ele>98.6724853515625</ele>
        <time>2012-09-29T10:36:36Z</time>
      </trkpt>
      <trkpt lat="13.190717361867428" lon="99.699723590165377">
        <ele>95.7884521484375</ele>
        <time>2012-09-29T10:36:44Z</time>
      </trkpt>
      <trkpt lat="13.189976653084159" lon="99.698622962459922">
        <ele>93.8658447265625</ele>
        <time>2012-09-29T10:37:20Z</time>
      </trkpt>
      <trkpt lat="13.190070698037744" lon="99.696290530264378">
        <ele>88.0980224609375</ele>
        <time>2012-09-29T10:37:59Z</time>
      </trkpt>
      <trkpt lat="13.190289633348584" lon="99.696069918572903">
        <ele>85.694580078125</ele>
        <time>2012-09-29T10:38:09Z</time>
      </trkpt>
      <trkpt lat="13.189263353124261" lon="99.695661216974258">
        <ele>86.17529296875</ele>
        <time>2012-09-29T10:38:51Z</time>
      </trkpt>
      <trkpt lat="13.18858752027154" lon="99.695533225312829">
        <ele>79.9266357421875</ele>
        <time>2012-09-29T10:39:03Z</time>
      </trkpt>
      <trkpt lat="13.188010593876243" lon="99.694849932566285">
        <ele>79.446044921875</ele>
        <time>2012-09-29T10:39:20Z</time>
      </trkpt>
      <trkpt lat="13.188038757070899" lon="99.691627845168114">
        <ele>84.252685546875</ele>
        <time>2012-09-29T10:40:46Z</time>
      </trkpt>
      <trkpt lat="13.186453236266971" lon="99.691210426390171">
        <ele>83.2913818359375</ele>
        <time>2012-09-29T10:41:18Z</time>
      </trkpt>
      <trkpt lat="13.18532494828105" lon="99.690283806994557">
        <ele>82.330078125</ele>
        <time>2012-09-29T10:41:42Z</time>
      </trkpt>
      <trkpt lat="13.185022948309779" lon="99.689796986058354">
        <ele>82.810791015625</ele>
        <time>2012-09-29T10:41:56Z</time>
      </trkpt>
      <trkpt lat="13.184853382408619" lon="99.68864849768579">
        <ele>79.9266357421875</ele>
        <time>2012-09-29T10:42:20Z</time>
      </trkpt>
      <trkpt lat="13.182722115889192" lon="99.687622217461467">
        <ele>84.7333984375</ele>
        <time>2012-09-29T10:43:18Z</time>
      </trkpt>
      <trkpt lat="13.180654216557741" lon="99.68624297529459">
        <ele>88.0980224609375</ele>
        <time>2012-09-29T10:44:21Z</time>
      </trkpt>
      <trkpt lat="13.180858483538032" lon="99.686221266165376">
        <ele>87.6171875</ele>
        <time>2012-09-29T10:44:33Z</time>
      </trkpt>
      <trkpt lat="13.181746462360024" lon="99.684218661859632">
        <ele>93.8658447265625</ele>
        <time>2012-09-29T10:45:37Z</time>
      </trkpt>
      <trkpt lat="13.182365046814084" lon="99.684425694867969">
        <ele>94.3465576171875</ele>
        <time>2012-09-29T10:45:57Z</time>
      </trkpt>
      <trkpt lat="13.182574762031436" lon="99.684864152222872">
        <ele>99.6337890625</ele>
        <time>2012-09-29T10:46:33Z</time>
      </trkpt>
      <trkpt lat="13.18261893466115" lon="99.684905977919698">
        <ele>99.6337890625</ele>
        <time>2012-09-29T10:46:39Z</time>
      </trkpt>
      <trkpt lat="13.183591738343239" lon="99.685190375894308">
        <ele>104.9210205078125</ele>
        <time>2012-09-29T10:47:37Z</time>
      </trkpt>
      <trkpt lat="13.184307804331183" lon="99.684944115579128">
        <ele>106.363037109375</ele>
        <time>2012-09-29T10:48:11Z</time>
      </trkpt>
      <trkpt lat="13.184736035764217" lon="99.684095866978168">
        <ele>106.363037109375</ele>
        <time>2012-09-29T10:48:39Z</time>
      </trkpt>
      <trkpt lat="13.184354742988944" lon="99.681662265211344">
        <ele>101.07568359375</ele>
        <time>2012-09-29T10:49:37Z</time>
      </trkpt>
      <trkpt lat="13.184464126825333" lon="99.680512519553304">
        <ele>103.47900390625</ele>
        <time>2012-09-29T10:50:04Z</time>
      </trkpt>
      <trkpt lat="13.184724301099777" lon="99.68034571968019">
        <ele>104.4404296875</ele>
        <time>2012-09-29T10:50:13Z</time>
      </trkpt>
      <trkpt lat="13.185071563348174" lon="99.680276904255152">
        <ele>104.9210205078125</ele>
        <time>2012-09-29T10:50:24Z</time>
      </trkpt>
      <trkpt lat="13.184833349660039" lon="99.6794662065804">
        <ele>107.8050537109375</ele>
        <time>2012-09-29T10:51:09Z</time>
      </trkpt>
      <trkpt lat="13.184752380475402" lon="99.679926792159677">
        <ele>106.363037109375</ele>
        <time>2012-09-29T10:52:45Z</time>
      </trkpt>
    </trkseg>
  </trk>

</gpx>
